Pagrindinis puslapis
METAR-TAF:

METAR-TAF

Oro uostai :

Abumusa, Iranas

platuma: 25-52-33N, ilguma: 055-02-01E, Aukštis: 7 m

Dabartinis oras

Ataskaita buvo paskelbta 43 minutes, ne 13:00 UTC
Vėjas 10 kt iš Rytų
Temperatūra 24°C
Drėgmė 57%
Slėgis 1012 hPa
Matomumas: 6000 m
Mažai debesys ne aukštis 2000 ft
Su prošvaistėmis ne aukštis 7000 ft

METAR: OIBA 131300Z 09010KT 6000 FEW020 BKN070 24/15 Q1012

Laikas: 17:13 (13:43 UTC)


TAF: trūkstamas

Orai ataskaitas ir orų prognozės (METAR, TAF).

turimą stotys yra geltonos ir raudonos taškus žemėlapyje.

Perkelti pele per norėdami pamatyti stoties vardą.

Tada spustelėkite, norėdami matyti oro stebėjimo ir prognozės.

Norėdami pakeisti žemėlapį: spustelėkite ant žalios mygtukų su juodo kryžiaus žemyn,; žalią mygtuką su brūkšneliu, jei norite nutolinti; arba žalių rodyklių gretimoms žemėlapius.


METAR-TAF: